createdAt,value
2019-02-28T00:05:11.614Z,62.07
2019-02-28T00:07:41.714Z,62.74
2019-02-28T00:10:31.480Z,63.07
2019-02-28T00:13:21.831Z,64.07
2019-02-28T00:15:52.694Z,64.55
2019-02-28T00:18:42.144Z,64.80
2019-02-28T00:21:12.717Z,64.28
2019-02-28T00:24:02.194Z,64.38
2019-02-28T00:26:32.298Z,65.14
2019-02-28T00:29:02.458Z,64.82
2019-02-28T00:34:15.243Z,64.26
2019-02-28T00:37:04.660Z,64.54
2019-02-28T00:39:54.156Z,65.21
2019-02-28T00:42:24.329Z,65.96
2019-02-28T00:44:54.489Z,65.91
2019-02-28T00:47:24.959Z,65.52
2019-02-28T00:50:14.437Z,65.52
2019-02-28T00:53:06.389Z,65.61
2019-02-28T00:55:35.466Z,66.05
2019-02-28T00:58:28.652Z,66.52
2019-02-28T01:00:56.537Z,66.98
2019-02-28T01:03:45.990Z,67.67
2019-02-28T01:06:35.470Z,67.81
2019-02-28T01:09:07.016Z,67.84
2019-02-28T01:11:37.220Z,67.90
2019-02-28T01:14:26.672Z,67.92
2019-02-28T01:16:56.795Z,68.23
2019-02-28T01:19:26.945Z,68.39
2019-02-28T01:22:16.136Z,68.41
2019-02-28T01:25:06.484Z,68.55
2019-02-28T01:30:57.849Z,68.99
2019-02-28T01:33:27.998Z,69.13
2019-02-28T01:36:17.188Z,69.72
2019-02-28T01:39:29.834Z,69.90
2019-02-28T01:42:19.980Z,70.01
2019-02-28T01:44:49.836Z,69.86
2019-02-28T01:47:21.346Z,70.16
2019-02-28T01:50:11.162Z,70.01
2019-02-28T01:52:45.679Z,69.94
2019-02-28T01:55:32.519Z,70.18
2019-02-28T01:58:21.728Z,70.40
2019-02-28T02:00:53.611Z,70.42
2019-02-28T02:03:24.094Z,70.23
2019-02-28T02:06:13.322Z,70.54
2019-02-28T02:08:43.438Z,70.75
2019-02-28T02:11:32.889Z,71.06
2019-02-28T02:14:03.624Z,71.08
2019-02-28T02:16:33.929Z,71.12
2019-02-28T02:19:23.421Z,71.56
2019-02-28T02:21:53.584Z,72.09
2019-02-28T02:24:24.394Z,71.70
2019-02-28T02:27:06.245Z,71.39
2019-02-28T02:29:37.112Z,71.59
2019-02-28T02:32:27.284Z,71.80
2019-02-28T02:35:16.497Z,71.68
2019-02-28T02:38:05.646Z,71.76
2019-02-28T02:40:58.995Z,71.91
2019-02-28T02:43:27.030Z,72.16
2019-02-28T02:46:20.172Z,72.37
2019-02-28T02:49:07.401Z,72.74
2019-02-28T02:51:56.884Z,72.90
2019-02-28T02:54:46.089Z,72.83
2019-02-28T02:57:16.287Z,72.55
2019-02-28T03:00:13.366Z,73.02
2019-02-28T03:02:57.416Z,72.56
2019-02-28T03:05:46.838Z,72.41
2019-02-28T03:08:37.305Z,72.11
2019-02-28T03:11:26.915Z,72.00
2019-02-28T03:14:17.324Z,72.36
2019-02-28T03:16:48.253Z,72.63
2019-02-28T03:19:18.792Z,72.82
2019-02-28T03:21:52.571Z,73.83
2019-02-28T03:24:39.923Z,74.54
2019-02-28T03:27:21.142Z,74.95
2019-02-28T03:29:51.345Z,74.88
2019-02-28T03:32:39.690Z,75.23
2019-02-28T03:35:16.591Z,75.17
2019-02-28T03:37:58.345Z,75.17
2019-02-28T03:40:28.586Z,74.96
2019-02-28T03:43:05.222Z,75.23
2019-02-28T03:45:50.006Z,75.47
2019-02-28T03:48:20.177Z,75.15
2019-02-28T03:50:55.342Z,75.41
2019-02-28T03:53:41.580Z,75.73
2019-02-28T03:56:30.913Z,75.86
2019-02-28T03:59:01.105Z,76.06
2019-02-28T04:01:31.766Z,76.02
2019-02-28T04:04:21.272Z,75.78
2019-02-28T04:07:15.391Z,75.91
2019-02-28T04:10:01.662Z,76.28
2019-02-28T04:12:50.848Z,76.28
2019-02-28T04:15:49.749Z,76.34
2019-02-28T04:18:31.254Z,76.41
2019-02-28T04:21:20.409Z,75.96
2019-02-28T04:23:50.559Z,76.21
2019-02-28T04:26:23.094Z,75.99
2019-02-28T04:28:54.729Z,76.12
2019-02-28T04:31:24.954Z,76.49
2019-02-28T04:33:55.173Z,76.61
2019-02-28T04:36:25.493Z,76.61
2019-02-28T04:38:55.633Z,76.71
2019-02-28T04:41:26.078Z,76.53
2019-02-28T04:44:18.278Z,76.85
2019-02-28T04:47:06.858Z,76.57
2019-02-28T04:49:57.725Z,76.43
2019-02-28T04:52:27.913Z,76.48
2019-02-28T04:55:17.419Z,76.62
2019-02-28T04:58:06.626Z,76.82
2019-02-28T05:00:56.134Z,76.88
2019-02-28T05:03:29.074Z,77.30
2019-02-28T05:06:18.365Z,77.13
2019-02-28T05:09:10.663Z,77.44
2019-02-28T05:12:02.383Z,77.14
2019-02-28T05:14:51.104Z,77.06
2019-02-28T05:17:22.305Z,77.26
2019-02-28T05:19:55.150Z,77.54
2019-02-28T05:22:44.470Z,77.58
2019-02-28T05:25:17.364Z,77.57
2019-02-28T05:27:46.965Z,77.78
2019-02-28T05:30:19.457Z,77.64
2019-02-28T05:32:49.798Z,77.57
2019-02-28T05:35:25.175Z,77.71
2019-02-28T05:38:11.199Z,77.56
2019-02-28T05:41:00.449Z,77.54
2019-02-28T05:43:49.634Z,77.31
2019-02-28T05:46:23.764Z,77.33
2019-02-28T05:49:12.062Z,77.06
2019-02-28T05:51:42.257Z,77.21
2019-02-28T05:58:00.418Z,77.02
2019-02-28T06:00:49.593Z,77.06
2019-02-28T06:03:38.954Z,77.01
2019-02-28T06:06:28.371Z,76.74
2019-02-28T06:09:17.571Z,76.76
2019-02-28T06:12:09.531Z,76.72
2019-02-28T06:15:02.190Z,76.63
2019-02-28T06:17:29.949Z,77.02
2019-02-28T06:20:00.370Z,76.82
2019-02-28T06:22:36.049Z,77.14
2019-02-28T06:25:24.970Z,77.12
2019-02-28T06:28:04.953Z,77.11
2019-02-28T06:30:35.574Z,76.91
2019-02-28T06:33:05.815Z,76.79
2019-02-28T06:35:45.816Z,76.94
2019-02-28T06:38:35.014Z,77.22
2019-02-28T06:41:24.201Z,77.08
2019-02-28T06:44:13.388Z,77.15
2019-02-28T06:47:02.566Z,77.33
2019-02-28T06:49:32.811Z,77.28
2019-02-28T06:52:25.242Z,77.08
2019-02-28T06:54:55.164Z,77.22
2019-02-28T06:57:44.348Z,77.18
2019-02-28T07:00:33.854Z,77.36
2019-02-28T07:03:04.499Z,77.21
2019-02-28T07:05:34.673Z,76.89
2019-02-28T07:08:24.808Z,76.82
2019-02-28T07:11:14.888Z,76.66
2019-02-28T07:13:56.348Z,76.52
2019-02-28T07:16:26.701Z,76.57
2019-02-28T07:18:56.924Z,76.26
2019-02-28T07:21:46.232Z,75.91
2019-02-28T07:24:37.586Z,75.54
2019-02-28T07:27:17.211Z,75.02
2019-02-28T07:29:47.474Z,74.82
2019-02-28T07:32:17.709Z,74.72
2019-02-28T07:34:59.036Z,74.31
2019-02-28T07:37:29.272Z,74.07
2019-02-28T07:39:59.530Z,74.14
2019-02-28T07:42:48.723Z,73.46
2019-02-28T07:45:37.922Z,72.67
2019-02-28T07:48:29.948Z,72.04
2019-02-28T07:51:21.847Z,71.23
2019-02-28T07:54:12.657Z,70.08
2019-02-28T07:56:43.214Z,67.95
2019-02-28T07:59:13.318Z,65.81
2019-02-28T08:01:43.626Z,63.77
2019-02-28T08:04:18.036Z,62.06
2019-02-28T08:06:46.042Z,61.55
2019-02-28T08:09:36.835Z,62.37
2019-02-28T08:12:07.219Z,63.45
2019-02-28T08:14:56.837Z,64.08
2019-02-28T08:17:26.996Z,64.02
2019-02-28T08:19:58.731Z,63.24
2019-02-28T08:22:31.292Z,63.17
2019-02-28T08:25:01.564Z,62.43
2019-02-28T08:27:31.751Z,61.95
2019-02-28T08:30:02.236Z,61.04
2019-02-28T08:32:51.660Z,59.81
2019-02-28T08:35:41.143Z,59.90
2019-02-28T08:38:34.271Z,55.45
2019-02-28T08:41:02.602Z,53.90
2019-02-28T08:43:51.934Z,53.21
2019-02-28T08:46:22.144Z,50.20
2019-02-28T08:49:11.604Z,46.77
2019-02-28T08:52:02.465Z,46.16
2019-02-28T08:54:51.995Z,43.16
2019-02-28T08:57:41.197Z,39.50
2019-02-28T09:00:34.300Z,36.94
2019-02-28T09:03:04.858Z,36.87
2019-02-28T09:05:54.060Z,35.69
2019-02-28T09:08:25.310Z,33.43
2019-02-28T09:10:56.121Z,33.33
2019-02-28T09:13:26.911Z,33.01
2019-02-28T09:16:16.352Z,31.37
2019-02-28T09:18:49.312Z,30.54
2019-02-28T09:21:41.218Z,30.19
2019-02-28T09:24:12.555Z,29.88
2019-02-28T09:27:04.088Z,30.32
2019-02-28T09:29:54.901Z,29.30
2019-02-28T09:32:29.214Z,29.56
2019-02-28T09:35:18.889Z,28.98
2019-02-28T09:38:00.284Z,29.41
2019-02-28T09:43:23.882Z,30.24
2019-02-28T09:46:12.485Z,29.12
2019-02-28T09:49:02.959Z,29.68
2019-02-28T09:51:52.516Z,30.87
2019-02-28T09:54:25.515Z,31.43
2019-02-28T09:56:56.755Z,31.93
2019-02-28T09:59:27.479Z,32.25
2019-02-28T10:02:01.470Z,32.17
2019-02-28T10:04:30.469Z,32.42
2019-02-28T10:07:23.439Z,31.88
2019-02-28T10:09:52.564Z,32.00
2019-02-28T10:12:43.099Z,32.73
2019-02-28T10:15:32.355Z,31.62
2019-02-28T10:18:04.240Z,30.97
2019-02-28T10:20:34.771Z,31.47
2019-02-28T10:23:24.000Z,31.95
2019-02-28T10:25:54.167Z,31.57
2019-02-28T10:28:43.389Z,31.40
2019-02-28T10:31:13.838Z,32.34
2019-02-28T10:33:44.406Z,31.20
2019-02-28T10:36:14.954Z,31.30
2019-02-28T10:38:56.559Z,30.82
2019-02-28T10:41:28.124Z,32.18
2019-02-28T10:43:58.953Z,32.86
2019-02-28T10:46:50.287Z,33.45
2019-02-28T10:49:21.074Z,33.67
2019-02-28T10:51:52.289Z,34.68
2019-02-28T10:54:24.149Z,35.55
2019-02-28T10:57:13.564Z,34.53
2019-02-28T10:59:43.723Z,34.77
2019-02-28T11:02:34.366Z,34.85
2019-02-28T11:05:07.982Z,34.91
2019-02-28T11:07:57.728Z,34.57
2019-02-28T11:10:47.059Z,34.60
2019-02-28T11:13:18.894Z,34.64
2019-02-28T11:15:49.670Z,34.68
2019-02-28T11:18:20.233Z,34.61
2019-02-28T11:20:51.021Z,33.85
2019-02-28T11:23:21.350Z,33.50
2019-02-28T11:25:53.022Z,33.71
2019-02-28T11:28:27.774Z,33.91
2019-02-28T11:31:16.334Z,34.10
2019-02-28T11:33:47.223Z,33.64
2019-02-28T11:36:20.543Z,33.50
2019-02-28T11:38:52.502Z,34.18
2019-02-28T11:41:42.919Z,32.85
2019-02-28T11:44:13.141Z,32.81
2019-02-28T11:46:43.756Z,33.01
2019-02-28T11:49:33.143Z,32.08
2019-02-28T11:52:03.296Z,31.96
2019-02-28T11:58:01.707Z,30.10
2019-02-28T12:00:35.639Z,29.67
2019-02-28T12:03:24.418Z,29.70
2019-02-28T12:06:14.957Z,28.86
2019-02-28T12:08:45.773Z,28.70
2019-02-28T12:11:57.605Z,28.71
2019-02-28T12:14:48.204Z,29.14
2019-02-28T12:17:18.437Z,29.77
2019-02-28T12:19:50.685Z,30.02
2019-02-28T12:22:39.522Z,29.76
2019-02-28T12:25:12.503Z,29.27
2019-02-28T12:27:43.798Z,28.46
2019-02-28T12:30:18.814Z,28.84
2019-02-28T12:33:08.033Z,28.69
2019-02-28T12:35:40.499Z,28.71
2019-02-28T12:38:10.156Z,29.05
2019-02-28T12:40:42.484Z,29.69
2019-02-28T12:43:12.748Z,29.38
2019-02-28T12:46:02.069Z,28.84
2019-02-28T12:48:51.305Z,29.10
2019-02-28T12:51:21.486Z,28.69
2019-02-28T12:54:10.702Z,28.71
2019-02-28T12:56:41.847Z,28.69
2019-02-28T12:59:12.092Z,29.27
2019-02-28T13:02:01.279Z,29.66
2019-02-28T13:04:50.552Z,30.25
2019-02-28T13:07:20.689Z,31.06
2019-02-28T13:09:52.667Z,30.54
2019-02-28T13:12:24.469Z,30.44
2019-02-28T13:14:54.864Z,29.95
2019-02-28T13:17:25.098Z,30.15
2019-02-28T13:19:56.574Z,29.97
2019-02-28T13:22:27.143Z,30.06
2019-02-28T13:24:57.356Z,31.18
2019-02-28T13:27:27.870Z,31.16
2019-02-28T13:29:58.154Z,31.27
2019-02-28T13:32:28.664Z,30.16
2019-02-28T13:35:03.083Z,29.36
2019-02-28T13:37:30.891Z,29.41
2019-02-28T13:40:04.289Z,30.57
2019-02-28T13:42:36.206Z,32.05
2019-02-28T13:45:24.934Z,32.56
2019-02-28T13:47:55.035Z,32.20
2019-02-28T13:50:27.089Z,32.09
2019-02-28T13:53:02.491Z,32.49
2019-02-28T13:55:29.628Z,33.12
2019-02-28T13:58:21.648Z,33.37
2019-02-28T14:00:51.180Z,33.76
2019-02-28T14:03:21.442Z,33.67
2019-02-28T14:05:51.865Z,33.45
2019-02-28T14:08:22.055Z,33.32
2019-02-28T14:10:55.090Z,33.05
2019-02-28T14:13:25.250Z,33.03
2019-02-28T14:15:56.804Z,32.92
2019-02-28T14:18:26.961Z,32.99
2019-02-28T14:20:59.439Z,33.07
2019-02-28T14:23:48.356Z,32.39
2019-02-28T14:26:18.516Z,32.10
2019-02-28T14:28:49.123Z,31.72
2019-02-28T14:31:39.082Z,32.03
2019-02-28T14:34:10.360Z,32.01
2019-02-28T14:36:44.837Z,31.44
2019-02-28T14:39:25.057Z,31.23
2019-02-28T14:41:57.789Z,30.42
2019-02-28T14:44:31.752Z,30.67
2019-02-28T14:47:24.927Z,30.96
2019-02-28T14:49:54.367Z,31.49
2019-02-28T14:52:26.170Z,31.09
2019-02-28T14:54:57.354Z,31.48
2019-02-28T14:57:48.848Z,30.66
2019-02-28T15:00:42.075Z,29.16
2019-02-28T15:03:29.782Z,27.91
2019-02-28T15:06:19.011Z,27.65
2019-02-28T15:09:14.240Z,30.56
2019-02-28T15:12:03.678Z,32.40
2019-02-28T15:14:52.823Z,33.11
2019-02-28T15:17:42.054Z,32.98
2019-02-28T15:20:32.906Z,31.17
2019-02-28T15:23:22.188Z,30.23
2019-02-28T15:26:11.625Z,28.13
2019-02-28T15:28:45.506Z,29.15
2019-02-28T15:33:57.480Z,28.91
2019-02-28T15:36:46.615Z,28.26
2019-02-28T15:39:17.378Z,27.92
2019-02-28T15:42:09.039Z,28.77
2019-02-28T15:45:00.424Z,30.00
2019-02-28T15:51:00.345Z,32.22
2019-02-28T15:53:50.369Z,33.25
2019-02-28T15:56:39.616Z,34.83
2019-02-28T15:59:28.760Z,35.71
2019-02-28T16:02:18.045Z,37.59
2019-02-28T16:04:48.148Z,38.15
2019-02-28T16:07:37.371Z,39.28
2019-02-28T16:10:28.553Z,40.27
2019-02-28T16:13:18.146Z,40.94
2019-02-28T16:16:07.694Z,41.40
2019-02-28T16:18:47.989Z,41.79
2019-02-28T16:21:38.205Z,42.01
2019-02-28T16:24:28.229Z,42.15
2019-02-28T16:27:17.389Z,42.54
2019-02-28T16:30:07.346Z,42.77
2019-02-28T16:32:37.544Z,43.04
2019-02-28T16:35:28.887Z,43.61
2019-02-28T16:38:17.763Z,44.19
2019-02-28T16:41:06.893Z,44.54
2019-02-28T16:43:57.160Z,45.39
2019-02-28T16:46:49.945Z,45.58
2019-02-28T16:49:19.180Z,45.92
2019-02-28T16:55:03.824Z,46.47
2019-02-28T16:57:52.990Z,46.78
2019-02-28T17:00:23.129Z,46.63
2019-02-28T17:03:12.606Z,46.95
2019-02-28T17:06:02.356Z,46.44
2019-02-28T17:09:15.024Z,45.76
2019-02-28T17:14:52.409Z,45.35
2019-02-28T17:20:23.769Z,45.65
2019-02-28T17:23:13.006Z,46.61
2019-02-28T17:25:43.275Z,47.32
2019-02-28T17:31:44.552Z,48.51
2019-02-28T17:34:23.877Z,48.19
2019-02-28T17:36:52.221Z,48.67
2019-02-28T17:39:25.189Z,48.57
2019-02-28T17:41:55.688Z,48.52
2019-02-28T17:44:51.458Z,48.40
2019-02-28T17:48:09.623Z,48.33
2019-02-28T17:51:15.009Z,48.51
2019-02-28T17:54:04.783Z,49.35
2019-02-28T17:57:16.539Z,49.24
2019-02-28T18:00:12.953Z,49.47
2019-02-28T18:03:18.590Z,50.03
2019-02-28T18:06:11.980Z,50.52
2019-02-28T18:09:22.174Z,51.30
2019-02-28T18:12:31.317Z,52.15
2019-02-28T18:15:25.660Z,52.55
2019-02-28T18:18:33.178Z,53.34
2019-02-28T18:21:32.106Z,53.69
2019-02-28T18:24:58.493Z,54.44
2019-02-28T18:28:22.596Z,54.92
2019-02-28T18:31:04.386Z,55.67
2019-02-28T18:33:34.636Z,56.10
2019-02-28T18:36:10.616Z,56.34
2019-02-28T18:38:40.783Z,56.99
2019-02-28T18:41:11.101Z,57.46
2019-02-28T18:43:42.109Z,58.13
2019-02-28T18:46:12.549Z,58.37
2019-02-28T18:48:43.497Z,58.82
2019-02-28T18:51:14.244Z,58.97
2019-02-28T18:53:44.966Z,59.07
2019-02-28T18:56:15.195Z,59.00
2019-02-28T18:58:45.323Z,58.91
2019-02-28T19:01:15.477Z,58.85
2019-02-28T19:03:46.403Z,58.76
2019-02-28T19:06:17.179Z,59.26
2019-02-28T19:08:48.367Z,59.43
2019-02-28T19:11:21.965Z,59.48
2019-02-28T19:13:52.516Z,59.52
2019-02-28T19:16:23.252Z,59.59
2019-02-28T19:18:54.056Z,59.73
2019-02-28T19:21:24.301Z,59.91
2019-02-28T19:23:59.550Z,59.98
2019-02-28T19:26:29.870Z,60.24
2019-02-28T19:29:02.064Z,60.25
2019-02-28T19:31:33.565Z,59.94
2019-02-28T19:34:04.571Z,59.74
2019-02-28T19:36:35.043Z,59.76
2019-02-28T19:39:06.903Z,59.74
2019-02-28T19:41:37.560Z,60.10
2019-02-28T19:44:08.925Z,59.94
2019-02-28T19:46:39.209Z,59.98
2019-02-28T19:49:10.527Z,59.98
2019-02-28T19:51:41.169Z,60.02
2019-02-28T19:54:14.179Z,60.12
2019-02-28T19:56:47.492Z,60.18
2019-02-28T19:59:18.125Z,60.27
2019-02-28T20:01:48.441Z,60.50
2019-02-28T20:04:18.980Z,60.10
2019-02-28T20:06:51.125Z,60.23
2019-02-28T20:09:21.966Z,59.73
2019-02-28T20:11:53.890Z,59.44
2019-02-28T20:14:26.094Z,58.82
2019-02-28T20:16:56.781Z,58.89
2019-02-28T20:19:28.045Z,59.11
2019-02-28T20:21:59.782Z,59.23
2019-02-28T20:24:31.418Z,59.36
2019-02-28T20:27:01.684Z,59.74
2019-02-28T20:29:31.990Z,59.15
2019-02-28T20:32:03.206Z,58.80
2019-02-28T20:34:35.937Z,58.32
2019-02-28T20:37:07.907Z,57.58
2019-02-28T20:39:38.381Z,57.43
2019-02-28T20:42:08.520Z,56.88
2019-02-28T20:44:38.703Z,56.84
2019-02-28T20:47:09.346Z,56.55
2019-02-28T20:49:46.510Z,56.27
2019-02-28T20:52:17.281Z,56.43
2019-02-28T20:54:51.607Z,56.19
2019-02-28T20:57:21.715Z,56.15
2019-02-28T20:59:51.998Z,56.32
2019-02-28T21:02:22.476Z,55.99
2019-02-28T21:04:52.804Z,56.07
2019-02-28T21:07:23.226Z,55.86
2019-02-28T21:09:53.675Z,55.74
2019-02-28T21:12:23.841Z,55.91
2019-02-28T21:14:53.977Z,55.67
2019-02-28T21:17:29.388Z,55.86
2019-02-28T21:19:56.728Z,55.79
2019-02-28T21:22:29.738Z,56.16
2019-02-28T21:24:59.921Z,56.17
2019-02-28T21:27:30.147Z,56.37
2019-02-28T21:30:01.805Z,56.51
2019-02-28T21:32:34.663Z,56.67
2019-02-28T21:35:04.859Z,56.57
2019-02-28T21:37:34.972Z,57.05
2019-02-28T21:40:05.884Z,56.99
2019-02-28T21:42:36.049Z,57.28
2019-02-28T21:45:10.938Z,57.52
2019-02-28T21:47:41.395Z,57.62
2019-02-28T21:50:13.648Z,57.76
2019-02-28T21:52:43.848Z,57.60
2019-02-28T21:55:14.623Z,57.65
2019-02-28T21:57:44.940Z,57.65
2019-02-28T22:00:21.139Z,57.83
2019-02-28T22:02:51.538Z,57.95
2019-02-28T22:05:22.371Z,58.15
2019-02-28T22:07:53.114Z,58.37
2019-02-28T22:10:23.551Z,58.60
2019-02-28T22:12:54.722Z,59.04
2019-02-28T22:15:24.895Z,59.49
2019-02-28T22:17:55.400Z,59.97
2019-02-28T22:20:26.735Z,60.27
2019-02-28T22:22:57.465Z,60.61
2019-02-28T22:25:29.516Z,60.76
2019-02-28T22:28:00.745Z,61.16
2019-02-28T22:31:05.027Z,61.24
2019-02-28T22:33:44.569Z,61.31
2019-02-28T22:36:18.640Z,61.39
2019-02-28T22:38:51.334Z,61.59
2019-02-28T22:41:23.572Z,61.80
2019-02-28T22:43:54.384Z,62.07
2019-02-28T22:46:34.565Z,62.05
2019-02-28T22:49:07.799Z,62.80
2019-02-28T22:51:40.349Z,63.47
2019-02-28T22:54:10.796Z,64.17
2019-02-28T22:56:44.033Z,64.64
2019-02-28T22:59:15.231Z,65.03
2019-02-28T23:01:48.140Z,65.85
2019-02-28T23:04:18.481Z,66.35
2019-02-28T23:06:49.659Z,67.68
2019-02-28T23:09:19.854Z,68.69
2019-02-28T23:11:51.460Z,69.71
2019-02-28T23:14:21.727Z,69.93
2019-02-28T23:16:52.028Z,70.03
2019-02-28T23:19:22.389Z,70.66
2019-02-28T23:21:55.159Z,70.99
2019-02-28T23:24:26.674Z,71.35
2019-02-28T23:27:14.137Z,71.37
2019-02-28T23:29:52.868Z,71.40
2019-02-28T23:32:51.535Z,71.16
2019-02-28T23:35:26.918Z,71.92
2019-02-28T23:37:57.111Z,74.28
2019-02-28T23:40:29.166Z,75.31
2019-02-28T23:42:59.335Z,76.55
2019-02-28T23:45:29.859Z,77.45
2019-02-28T23:48:00.153Z,78.90
2019-02-28T23:50:30.809Z,79.53
2019-02-28T23:53:01.266Z,80.06
2019-02-28T23:55:40.027Z,81.57
2019-02-28T23:58:10.671Z,80.98
